createdAt,value
2022-07-26T00:01:25.962Z,0
2022-07-26T00:11:07.194Z,0
2022-07-26T00:20:38.770Z,0
2022-07-26T00:39:52.211Z,0
2022-07-26T00:49:28.744Z,0
2022-07-26T00:59:05.954Z,0
2022-07-26T01:08:42.735Z,0
2022-07-26T01:27:56.561Z,0
2022-07-26T01:37:32.989Z,0
2022-07-26T01:47:09.407Z,0
2022-07-26T01:56:46.273Z,0
2022-07-26T02:06:23.570Z,0
2022-07-26T02:16:00.188Z,0
2022-07-26T02:25:36.936Z,0
2022-07-26T02:35:13.961Z,0
2022-07-26T02:44:51.202Z,0
2022-07-26T02:54:28.668Z,0
2022-07-26T03:04:05.593Z,0
2022-07-26T03:13:42.231Z,0
2022-07-26T03:52:10.078Z,22.5
2022-07-26T04:01:47.401Z,33.75
2022-07-26T04:11:26.391Z,45
2022-07-26T04:21:02.076Z,61.88
2022-07-26T04:30:39.830Z,78.75
2022-07-26T04:40:17.165Z,84.38
2022-07-26T04:49:54.929Z,118.13
2022-07-26T04:59:33.183Z,123.75
2022-07-26T05:18:49.357Z,157.5
2022-07-26T05:28:26.815Z,174.38
2022-07-26T05:38:05.109Z,174.38
2022-07-26T05:47:44.462Z,168.75
2022-07-26T06:07:01.408Z,174.38
2022-07-26T06:16:39.533Z,196.88
2022-07-26T06:26:17.521Z,208.13
2022-07-26T06:35:54.965Z,185.63
2022-07-26T06:45:32.579Z,168.75
2022-07-26T06:55:12.641Z,168.75
2022-07-26T07:14:25.323Z,185.63
2022-07-26T07:24:03.074Z,202.5
2022-07-26T07:33:43.925Z,208.13
2022-07-26T07:43:18.699Z,202.5
2022-07-26T07:52:56.587Z,202.5
2022-07-26T08:02:34.074Z,202.5
2022-07-26T08:31:28.038Z,264.38
2022-07-26T08:41:05.997Z,309.38
2022-07-26T08:50:44.742Z,410.63
2022-07-26T09:00:23.477Z,331.88
2022-07-26T09:10:01.705Z,337.5
2022-07-26T09:19:40.491Z,360
2022-07-26T09:29:18.677Z,2221.88
2022-07-26T09:49:10.751Z,2441.25
2022-07-26T09:58:34.890Z,2210.63
2022-07-26T10:08:15.146Z,3515.63
2022-07-26T10:17:55.168Z,2694.38
2022-07-26T10:27:35.232Z,2655
2022-07-26T10:37:23.715Z,1344.38
2022-07-26T10:56:29.891Z,888.75
2022-07-26T11:06:03.143Z,2126.25
2022-07-26T11:35:13.917Z,1456.88
2022-07-26T11:44:44.110Z,900
2022-07-26T11:54:14.273Z,978.75
2022-07-26T12:03:47.675Z,804.38
2022-07-26T12:13:24.456Z,821.25
2022-07-26T12:23:00.865Z,770.63
2022-07-26T12:32:37.783Z,849.38
2022-07-26T12:42:21.228Z,1057.5
2022-07-26T12:51:56.371Z,905.63
2022-07-26T13:01:32.941Z,838.13
2022-07-26T13:49:39.155Z,556.88
2022-07-26T13:59:15.666Z,495
2022-07-26T14:08:53.703Z,826.88
2022-07-26T14:28:13.471Z,714.38
2022-07-26T14:37:50.795Z,725.63
2022-07-26T14:47:27.565Z,601.88
2022-07-26T14:57:03.985Z,590.63
2022-07-26T15:16:17.989Z,461.25
2022-07-26T15:25:54.454Z,388.13
2022-07-26T15:35:31.314Z,360
2022-07-26T15:54:44.350Z,247.5
2022-07-26T16:14:01.538Z,365.63
2022-07-26T16:42:51.915Z,354.38
2022-07-26T16:52:29.497Z,247.5
2022-07-26T17:02:05.748Z,230.63
2022-07-26T17:11:42.139Z,185.63
2022-07-26T17:30:56.004Z,112.5
2022-07-26T17:40:32.729Z,78.75
2022-07-26T17:50:26.767Z,56.25
2022-07-26T18:09:22.426Z,33.75
2022-07-26T18:18:59.448Z,33.75
2022-07-26T18:38:13.567Z,11.25
2022-07-26T18:47:50.468Z,5.63
2022-07-26T18:57:27.638Z,0
2022-07-26T19:07:04.851Z,0
2022-07-26T19:35:55.853Z,0
2022-07-26T19:45:31.427Z,0
2022-07-26T19:55:07.651Z,0
2022-07-26T20:14:18.880Z,0
2022-07-26T20:23:55.746Z,0
2022-07-26T20:33:32.778Z,0
2022-07-26T20:43:09.694Z,0
2022-07-26T20:52:45.955Z,0
2022-07-26T21:02:23.220Z,0
2022-07-26T21:12:00.151Z,0
2022-07-26T21:21:37.254Z,0
2022-07-26T21:31:14.720Z,0
2022-07-26T21:40:51.785Z,0
2022-07-26T21:50:28.931Z,0
2022-07-26T22:28:57.420Z,0
2022-07-26T22:38:34.830Z,0
2022-07-26T22:48:12.049Z,0
2022-07-26T22:57:49.306Z,0
2022-07-26T23:07:26.550Z,0
2022-07-26T23:17:04.305Z,0
2022-07-26T23:26:41.634Z,0
2022-07-26T23:55:35.978Z,0
